Time;durP1;ratioP1;P1;durP2;ratioP2;P2;SDS_P1;SDS_P2;PMS_P1;PMS_P2;Temp;Humidity;BMP_temperature;BMP_pressure;BME280_temperature;BME280_humidity;BME280_pressure;Samples;Min_cycle;Max_cycle;Signal;HPM_P1;HPM_P2
2022/10/07 00:00:13;;;;;;;6.85;2.53;;;;;;;;;;5028514;28;20519;-66
2022/10/07 00:02:39;;;;;;;8.93;2.80;;;;;;;;;;5028796;28;20652;-66
2022/10/07 00:05:05;;;;;;;7.25;2.40;;;;;;;;;;5039673;28;20510;-66
2022/10/07 00:07:30;;;;;;;5.47;2.38;;;;;;;;;;5048419;28;20044;-66
2022/10/07 00:09:55;;;;;;;9.60;2.67;;;;;;;;;;5048091;28;20129;-66
2022/10/07 00:12:21;;;;;;;9.45;2.95;;;;;;;;;;5028533;28;20048;-66
2022/10/07 00:14:46;;;;;;;8.07;2.72;;;;;;;;;;5048143;28;20033;-66
2022/10/07 00:17:11;;;;;;;9.90;2.83;;;;;;;;;;5044313;28;20040;-66
2022/10/07 00:19:36;;;;;;;9.40;2.65;;;;;;;;;;5026879;28;20521;-66
2022/10/07 00:22:02;;;;;;;9.00;2.63;;;;;;;;;;5027807;28;20584;-66
2022/10/07 00:24:27;;;;;;;11.25;3.53;;;;;;;;;;5027988;28;20026;-66
2022/10/07 00:26:52;;;;;;;11.35;3.47;;;;;;;;;;5028118;28;20037;-66
2022/10/07 00:29:18;;;;;;;13.65;3.45;;;;;;;;;;5027998;28;20021;-66
2022/10/07 00:31:43;;;;;;;13.70;3.13;;;;;;;;;;5028175;28;20040;-65
2022/10/07 00:34:10;;;;;;;8.98;2.60;;;;;;;;;;5031043;28;20065;-66
2022/10/07 00:36:36;;;;;;;6.32;2.72;;;;;;;;;;5060095;28;20056;-66
2022/10/07 00:39:13;;;;;;;11.07;3.15;;;;;;;;;;5063358;28;20542;-66
2022/10/07 00:41:44;;;;;;;6.50;2.60;;;;;;;;;;5047945;28;20028;-66
2022/10/07 00:44:32;;;;;;;7.75;2.95;;;;;;;;;;5051006;28;20881;-66
2022/10/07 00:46:59;;;;;;;5.00;2.40;;;;;;;;;;5067633;28;20037;-66
2022/10/07 00:49:27;;;;;;;7.05;2.53;;;;;;;;;;5067635;28;20028;-66
2022/10/07 00:51:52;;;;;;;7.40;2.15;;;;;;;;;;5040503;28;20044;-66
2022/10/07 00:54:19;;;;;;;7.60;2.85;;;;;;;;;;5047372;28;20029;-66
2022/10/07 00:56:46;;;;;;;6.65;2.85;;;;;;;;;;5047755;28;20035;-66
2022/10/07 00:59:14;;;;;;;3.90;2.10;;;;;;;;;;5047234;28;20140;-66
2022/10/07 01:01:40;;;;;;;4.60;2.67;;;;;;;;;;5049935;28;20057;-66
2022/10/07 01:04:05;;;;;;;5.07;2.53;;;;;;;;;;5029005;28;20033;-66
2022/10/07 01:06:31;;;;;;;5.10;2.38;;;;;;;;;;5028972;28;20040;-66
2022/10/07 01:08:56;;;;;;;6.40;2.47;;;;;;;;;;5047354;28;20040;-66
2022/10/07 01:11:54;;;;;;;7.15;2.80;;;;;;;;;;5046994;28;20414;-66
2022/10/07 01:14:31;;;;;;;8.73;2.83;;;;;;;;;;5047220;28;20522;-66
2022/10/07 01:17:08;;;;;;;7.60;3.00;;;;;;;;;;5046758;28;20044;-66
2022/10/07 01:19:54;;;;;;;10.90;3.33;;;;;;;;;;5046864;28;20037;-66
2022/10/07 01:22:52;;;;;;;8.50;3.22;;;;;;;;;;5043162;28;20037;-66
2022/10/07 01:25:32;;;;;;;10.80;3.20;;;;;;;;;;5014270;28;20084;-66
2022/10/07 01:28:06;;;;;;;7.63;2.95;;;;;;;;;;5026916;28;20049;-66
2022/10/07 01:30:35;;;;;;;5.53;2.38;;;;;;;;;;5026419;28;20064;-66
2022/10/07 01:33:05;;;;;;;7.30;2.63;;;;;;;;;;5026148;28;20488;-66
2022/10/07 01:35:34;;;;;;;9.80;2.90;;;;;;;;;;5027136;28;20048;-66
2022/10/07 01:38:04;;;;;;;11.15;2.60;;;;;;;;;;5026348;28;20038;-66
2022/10/07 01:40:35;;;;;;;11.02;2.83;;;;;;;;;;5043435;28;20437;-66
2022/10/07 01:43:01;;;;;;;9.45;2.63;;;;;;;;;;5025712;28;20031;-66
2022/10/07 01:45:29;;;;;;;6.50;2.70;;;;;;;;;;5046824;28;20842;-66
2022/10/07 01:47:55;;;;;;;13.20;3.20;;;;;;;;;;5042272;28;20022;-66
2022/10/07 01:50:24;;;;;;;13.77;2.35;;;;;;;;;;5026134;28;20082;-66
2022/10/07 01:52:50;;;;;;;11.52;3.25;;;;;;;;;;5026519;28;20037;-66
2022/10/07 01:55:31;;;;;;;8.68;3.00;;;;;;;;;;5026837;28;20064;-66
2022/10/07 01:58:05;;;;;;;6.57;2.90;;;;;;;;;;5026552;28;20033;-66
2022/10/07 02:00:35;;;;;;;6.15;2.60;;;;;;;;;;5025020;28;20032;-66
2022/10/07 02:03:03;;;;;;;7.30;2.60;;;;;;;;;;5026570;28;20570;-66
2022/10/07 02:05:41;;;;;;;13.60;2.83;;;;;;;;;;5026761;28;20288;-66
2022/10/07 02:08:21;;;;;;;7.03;2.58;;;;;;;;;;5025373;28;20111;-67
2022/10/07 02:10:49;;;;;;;7.57;2.45;;;;;;;;;;5024726;28;20475;-66
2022/10/07 02:13:24;;;;;;;10.77;2.88;;;;;;;;;;5026279;28;20486;-66
2022/10/07 02:16:17;;;;;;;9.68;3.72;;;;;;;;;;5026628;28;20053;-66
2022/10/07 02:18:47;;;;;;;11.53;3.33;;;;;;;;;;5026288;28;20107;-66
2022/10/07 02:21:14;;;;;;;11.52;3.13;;;;;;;;;;5026500;28;20522;-66
2022/10/07 02:23:42;;;;;;;7.47;2.33;;;;;;;;;;5025997;28;20097;-66
2022/10/07 02:26:11;;;;;;;5.13;2.30;;;;;;;;;;5026637;28;20530;-66
2022/10/07 02:28:39;;;;;;;8.98;2.70;;;;;;;;;;5026130;28;20026;-66
2022/10/07 02:31:07;;;;;;;5.05;2.13;;;;;;;;;;5025943;28;20091;-66
2022/10/07 02:33:33;;;;;;;6.15;2.42;;;;;;;;;;5025831;28;20450;-66
2022/10/07 02:36:02;;;;;;;8.75;2.60;;;;;;;;;;5028793;28;20029;-66
2022/10/07 02:38:28;;;;;;;8.55;2.80;;;;;;;;;;5030453;28;20087;-66
2022/10/07 02:41:30;;;;;;;6.88;2.83;;;;;;;;;;5049884;28;20119;-66
2022/10/07 02:44:08;;;;;;;15.77;2.55;;;;;;;;;;5049696;28;20031;-66
2022/10/07 02:46:41;;;;;;;5.80;2.55;;;;;;;;;;5050266;28;20064;-66
2022/10/07 02:49:10;;;;;;;9.75;2.50;;;;;;;;;;5049965;28;20063;-66
2022/10/07 02:51:45;;;;;;;5.60;2.35;;;;;;;;;;5050102;28;20025;-66
2022/10/07 02:54:15;;;;;;;10.45;2.92;;;;;;;;;;5060041;28;20856;-66
2022/10/07 02:56:40;;;;;;;9.77;2.88;;;;;;;;;;5070181;28;20024;-66
2022/10/07 02:59:08;;;;;;;7.85;2.58;;;;;;;;;;5069785;28;20025;-66
2022/10/07 03:01:39;;;;;;;11.00;2.58;;;;;;;;;;5051192;28;20074;-66
2022/10/07 03:04:05;;;;;;;9.35;2.28;;;;;;;;;;5069640;28;20068;-66
2022/10/07 03:06:30;;;;;;;11.38;3.10;;;;;;;;;;5047944;28;20053;-66
2022/10/07 03:08:56;;;;;;;10.25;2.80;;;;;;;;;;5049689;28;20447;-66
2022/10/07 03:11:23;;;;;;;11.43;2.88;;;;;;;;;;5049709;28;20506;-66
2022/10/07 03:13:48;;;;;;;9.88;2.38;;;;;;;;;;5048875;28;20052;-66
2022/10/07 03:16:13;;;;;;;6.53;2.45;;;;;;;;;;5049263;28;20071;-66
2022/10/07 03:18:40;;;;;;;7.63;2.30;;;;;;;;;;5049204;28;20074;-66
2022/10/07 03:21:05;;;;;;;7.50;2.72;;;;;;;;;;5050491;28;20021;-66
2022/10/07 03:23:31;;;;;;;10.73;2.53;;;;;;;;;;5049169;28;20025;-66
2022/10/07 03:25:58;;;;;;;7.35;2.03;;;;;;;;;;5048981;28;20086;-66
2022/10/07 03:28:25;;;;;;;11.48;2.63;;;;;;;;;;5048993;28;20413;-66
2022/10/07 03:30:51;;;;;;;8.50;2.72;;;;;;;;;;5030640;28;20426;-66
2022/10/07 03:33:18;;;;;;;6.45;2.47;;;;;;;;;;5048968;28;20529;-66
2022/10/07 03:35:43;;;;;;;7.38;2.20;;;;;;;;;;5031754;28;20603;-66
2022/10/07 03:38:09;;;;;;;9.57;2.55;;;;;;;;;;5062829;28;20032;-66
2022/10/07 03:40:36;;;;;;;10.52;2.10;;;;;;;;;;5051388;28;20040;-66
2022/10/07 03:43:03;;;;;;;10.38;2.53;;;;;;;;;;5048895;28;20406;-66
2022/10/07 03:45:29;;;;;;;4.95;2.10;;;;;;;;;;5048482;28;20119;-66
2022/10/07 03:47:55;;;;;;;3.95;2.13;;;;;;;;;;5048825;28;20020;-66
2022/10/07 03:50:20;;;;;;;5.40;2.45;;;;;;;;;;5047573;28;20021;-66
2022/10/07 03:52:46;;;;;;;4.20;1.98;;;;;;;;;;5048128;28;20037;-66
2022/10/07 03:55:11;;;;;;;8.93;2.05;;;;;;;;;;5048581;28;20414;-66
2022/10/07 03:57:56;;;;;;;6.53;1.90;;;;;;;;;;5048911;28;20025;-66
2022/10/07 04:00:24;;;;;;;21.25;2.33;;;;;;;;;;5046787;28;20049;-66
2022/10/07 04:02:50;;;;;;;8.73;1.92;;;;;;;;;;5048815;28;20033;-66
2022/10/07 04:05:17;;;;;;;8.55;1.83;;;;;;;;;;5031012;28;20027;-66
2022/10/07 04:07:44;;;;;;;5.03;1.88;;;;;;;;;;5051604;28;20032;-66
2022/10/07 04:10:10;;;;;;;9.32;2.03;;;;;;;;;;5038092;28;20029;-66
2022/10/07 04:12:36;;;;;;;9.07;2.28;;;;;;;;;;5048370;28;20095;-66
2022/10/07 04:15:01;;;;;;;7.25;1.83;;;;;;;;;;5033946;28;20028;-66
2022/10/07 04:17:27;;;;;;;12.35;1.85;;;;;;;;;;5056491;28;20028;-66
2022/10/07 04:19:53;;;;;;;7.32;2.13;;;;;;;;;;5026792;28;20689;-66
2022/10/07 04:22:18;;;;;;;5.18;1.70;;;;;;;;;;5027978;28;20550;-66
2022/10/07 04:25:32;;;;;;;7.15;1.77;;;;;;;;;;5027496;28;20100;-66
2022/10/07 04:27:28;;;;;;;9.00;2.10;;;;;;;;;;5027909;28;20033;-66
2022/10/07 04:29:54;;;;;;;14.00;2.03;;;;;;;;;;5026423;28;20033;-66
2022/10/07 04:32:21;;;;;;;9.05;2.15;;;;;;;;;;5027359;28;20491;-66
2022/10/07 04:34:49;;;;;;;6.80;1.85;;;;;;;;;;5027822;28;20464;-66
2022/10/07 04:37:14;;;;;;;6.18;2.00;;;;;;;;;;5029631;28;20025;-66
2022/10/07 04:39:40;;;;;;;7.32;1.90;;;;;;;;;;5039505;28;20032;-66
2022/10/07 04:42:05;;;;;;;8.13;2.30;;;;;;;;;;5047713;28;20036;-66
2022/10/07 04:44:30;;;;;;;6.07;1.92;;;;;;;;;;5048302;28;20029;-66
2022/10/07 04:46:56;;;;;;;7.82;1.92;;;;;;;;;;5040736;28;20024;-66
2022/10/07 04:49:21;;;;;;;6.28;1.80;;;;;;;;;;5049896;28;20055;-66
2022/10/07 04:51:46;;;;;;;7.38;1.85;;;;;;;;;;5049476;28;20097;-66
2022/10/07 04:54:12;;;;;;;5.07;1.90;;;;;;;;;;5066772;28;20379;-66
2022/10/07 04:56:37;;;;;;;7.60;1.90;;;;;;;;;;5067948;28;20024;-66
2022/10/07 04:59:03;;;;;;;16.50;1.80;;;;;;;;;;5066277;28;20029;-66
2022/10/07 05:01:29;;;;;;;4.63;1.95;;;;;;;;;;5067005;28;20024;-66
2022/10/07 05:03:54;;;;;;;9.20;1.63;;;;;;;;;;5067228;28;20426;-66
2022/10/07 05:06:19;;;;;;;3.30;1.92;;;;;;;;;;5066816;28;20487;-66
2022/10/07 05:08:45;;;;;;;6.15;2.30;;;;;;;;;;5048983;28;20032;-66
2022/10/07 05:11:10;;;;;;;16.00;2.00;;;;;;;;;;5066269;28;20025;-66
2022/10/07 05:13:37;;;;;;;9.20;2.40;;;;;;;;;;5066118;28;20040;-66
2022/10/07 05:16:02;;;;;;;8.57;2.47;;;;;;;;;;5055486;28;20037;-66
2022/10/07 05:18:29;;;;;;;4.60;2.20;;;;;;;;;;5043131;28;20427;-66
2022/10/07 05:20:55;;;;;;;8.80;2.10;;;;;;;;;;5046264;28;20163;-66
2022/10/07 05:23:22;;;;;;;8.25;2.00;;;;;;;;;;5059508;28;20124;-66
2022/10/07 05:25:56;;;;;;;8.82;2.30;;;;;;;;;;5066907;28;20039;-66
2022/10/07 05:28:22;;;;;;;8.18;2.10;;;;;;;;;;5067484;28;20028;-66
2022/10/07 05:30:48;;;;;;;9.13;2.13;;;;;;;;;;5038458;28;20024;-66
2022/10/07 05:33:13;;;;;;;5.72;2.40;;;;;;;;;;5045735;28;20032;-66
2022/10/07 05:35:44;;;;;;;8.65;2.38;;;;;;;;;;5054601;28;20457;-66
2022/10/07 05:38:10;;;;;;;17.98;3.00;;;;;;;;;;5048817;28;20044;-66
2022/10/07 05:40:35;;;;;;;6.43;2.00;;;;;;;;;;5048292;28;20383;-66
2022/10/07 05:43:00;;;;;;;5.35;2.10;;;;;;;;;;5048282;28;20036;-66
2022/10/07 05:45:26;;;;;;;8.02;2.40;;;;;;;;;;5031046;28;20024;-66
2022/10/07 05:47:51;;;;;;;11.30;2.17;;;;;;;;;;5048462;28;20040;-66
2022/10/07 05:50:16;;;;;;;10.93;2.08;;;;;;;;;;5048456;28;20045;-66
2022/10/07 05:52:44;;;;;;;13.90;2.33;;;;;;;;;;5048250;28;20107;-66
2022/10/07 05:55:09;;;;;;;7.03;2.15;;;;;;;;;;5048054;28;20100;-66
2022/10/07 05:57:37;;;;;;;7.50;1.90;;;;;;;;;;5032850;28;20116;-66
2022/10/07 06:00:03;;;;;;;6.43;2.38;;;;;;;;;;5030826;28;20523;-66
2022/10/07 06:02:28;;;;;;;10.07;3.70;;;;;;;;;;5049852;28;20028;-66
2022/10/07 06:04:54;;;;;;;9.05;2.47;;;;;;;;;;5024524;28;20431;-66
2022/10/07 06:07:22;;;;;;;7.00;2.30;;;;;;;;;;5026533;28;20411;-66
2022/10/07 06:15:15;;;;;;;6.38;1.75;;;;;;;;;;5056782;28;19919;-66
2022/10/07 06:17:42;;;;;;;8.00;2.30;;;;;;;;;;5053798;28;20032;-66
2022/10/07 06:20:09;;;;;;;4.28;2.10;;;;;;;;;;5056476;28;20067;-66
2022/10/07 06:22:34;;;;;;;9.93;2.85;;;;;;;;;;5049866;28;20232;-66
2022/10/07 06:25:01;;;;;;;15.07;3.00;;;;;;;;;;5046535;28;20601;-66
2022/10/07 06:27:29;;;;;;;11.73;2.72;;;;;;;;;;5044897;28;20025;-66
2022/10/07 06:29:54;;;;;;;9.23;2.20;;;;;;;;;;5026854;28;20033;-66
2022/10/07 06:32:20;;;;;;;13.35;4.40;;;;;;;;;;5031854;28;20139;-66
2022/10/07 06:34:45;;;;;;;13.23;3.72;;;;;;;;;;5042998;28;20057;-66
2022/10/07 06:37:10;;;;;;;15.88;3.90;;;;;;;;;;5047074;28;20029;-65
2022/10/07 06:39:36;;;;;;;7.00;1.98;;;;;;;;;;5048809;28;20027;-64
2022/10/07 06:42:01;;;;;;;7.43;2.30;;;;;;;;;;5043192;28;20021;-65
2022/10/07 06:44:27;;;;;;;12.15;2.20;;;;;;;;;;5046465;28;20047;-65
2022/10/07 06:46:53;;;;;;;12.68;2.78;;;;;;;;;;5046397;28;20037;-65
2022/10/07 06:49:18;;;;;;;8.20;2.78;;;;;;;;;;5029378;28;20116;-65
2022/10/07 06:51:43;;;;;;;9.00;2.60;;;;;;;;;;5038437;28;20509;-65
2022/10/07 06:54:09;;;;;;;9.77;2.78;;;;;;;;;;5037205;28;20597;-66
2022/10/07 06:56:34;;;;;;;7.78;2.72;;;;;;;;;;5026951;28;20033;-66
2022/10/07 06:59:00;;;;;;;9.93;2.45;;;;;;;;;;5046266;28;20410;-67
2022/10/07 07:01:26;;;;;;;9.02;2.50;;;;;;;;;;5049116;28;20033;-65
2022/10/07 07:03:52;;;;;;;11.35;2.70;;;;;;;;;;5045331;28;20619;-65
2022/10/07 07:06:18;;;;;;;5.97;2.65;;;;;;;;;;5048310;28;20063;-66
2022/10/07 07:08:44;;;;;;;8.77;2.92;;;;;;;;;;5046557;28;20033;-66
2022/10/07 07:13:56;;;;;;;10.38;2.85;;;;;;;;;;5046497;28;20540;-65
2022/10/07 07:16:25;;;;;;;9.90;2.85;;;;;;;;;;5047588;28;20025;-66
2022/10/07 07:18:52;;;;;;;18.23;3.22;;;;;;;;;;5057296;28;20052;-65
2022/10/07 07:21:18;;;;;;;5.63;2.65;;;;;;;;;;5068632;28;20481;-66
2022/10/07 07:23:44;;;;;;;8.35;2.55;;;;;;;;;;5070594;28;20525;-66
2022/10/07 07:26:09;;;;;;;6.25;2.83;;;;;;;;;;5071167;28;20067;-67
2022/10/07 07:28:35;;;;;;;11.27;3.20;;;;;;;;;;5070211;28;20056;-66
2022/10/07 07:31:08;;;;;;;11.05;3.50;;;;;;;;;;5070058;28;20045;-65
2022/10/07 07:33:33;;;;;;;10.48;3.42;;;;;;;;;;5033233;28;20035;-66
2022/10/07 07:35:59;;;;;;;8.88;2.72;;;;;;;;;;5053555;28;20021;-65
2022/10/07 07:38:24;;;;;;;11.52;3.03;;;;;;;;;;5052307;28;20463;-65
2022/10/07 07:40:49;;;;;;;7.80;3.25;;;;;;;;;;5050131;28;20025;-65
2022/10/07 07:43:15;;;;;;;7.00;3.10;;;;;;;;;;5049474;28;20498;-66
2022/10/07 07:45:40;;;;;;;13.15;3.25;;;;;;;;;;5065537;28;20032;-65
2022/10/07 07:48:05;;;;;;;7.88;3.17;;;;;;;;;;5070943;28;20562;-65
2022/10/07 07:50:30;;;;;;;12.77;2.92;;;;;;;;;;5049306;28;20111;-67
2022/10/07 07:52:58;;;;;;;10.93;3.63;;;;;;;;;;5049787;28;20148;-67
2022/10/07 07:55:24;;;;;;;9.73;3.40;;;;;;;;;;5030922;28;20120;-66
2022/10/07 07:57:49;;;;;;;13.75;3.40;;;;;;;;;;5050047;28;20024;-67
2022/10/07 08:00:15;;;;;;;7.22;3.08;;;;;;;;;;5049420;28;20021;-67
2022/10/07 08:02:41;;;;;;;16.15;4.57;;;;;;;;;;5048016;28;20029;-67
2022/10/07 08:05:06;;;;;;;9.73;3.95;;;;;;;;;;5048014;28;20044;-67
2022/10/07 08:07:34;;;;;;;11.65;4.38;;;;;;;;;;5049106;28;20029;-66
2022/10/07 08:09:59;;;;;;;14.43;4.30;;;;;;;;;;5049903;28;20033;-67
2022/10/07 08:12:24;;;;;;;16.15;4.05;;;;;;;;;;5050112;28;20045;-67
2022/10/07 08:14:51;;;;;;;13.75;4.53;;;;;;;;;;5031183;28;20079;-67
2022/10/07 08:17:16;;;;;;;15.32;4.10;;;;;;;;;;5049458;28;20218;-67
2022/10/07 08:19:41;;;;;;;11.15;3.90;;;;;;;;;;5030255;28;20557;-67
2022/10/07 08:22:07;;;;;;;9.13;3.33;;;;;;;;;;5045797;28;20506;-66
2022/10/07 08:24:33;;;;;;;14.27;3.97;;;;;;;;;;5049196;28;20585;-67
2022/10/07 08:26:58;;;;;;;13.15;4.53;;;;;;;;;;5052094;28;20119;-66
2022/10/07 08:29:23;;;;;;;12.73;4.70;;;;;;;;;;5023984;28;20040;-66
2022/10/07 08:31:48;;;;;;;14.77;4.68;;;;;;;;;;5028864;28;20115;-66
2022/10/07 08:34:14;;;;;;;14.48;4.03;;;;;;;;;;5043190;28;20025;-67
2022/10/07 08:36:42;;;;;;;9.32;3.75;;;;;;;;;;5044533;28;20510;-67
2022/10/07 08:39:09;;;;;;;14.95;4.03;;;;;;;;;;5051301;28;20053;-67
2022/10/07 08:41:57;;;;;;;13.50;4.20;;;;;;;;;;5047212;28;20116;-67
2022/10/07 08:44:31;;;;;;;17.55;4.82;;;;;;;;;;5048267;28;20036;-67
2022/10/07 08:47:02;;;;;;;14.00;4.32;;;;;;;;;;5044425;28;20033;-67
2022/10/07 08:49:54;;;;;;;15.38;4.47;;;;;;;;;;5048238;28;20037;-67
2022/10/07 08:52:50;;;;;;;10.68;4.05;;;;;;;;;;5009569;28;20037;-67
2022/10/07 08:55:38;;;;;;;16.92;4.25;;;;;;;;;;5002328;28;20033;-67
2022/10/07 08:58:29;;;;;;;16.98;4.22;;;;;;;;;;5047051;28;20449;-67
2022/10/07 09:01:14;;;;;;;14.73;3.80;;;;;;;;;;5047947;28;20059;-67
2022/10/07 09:04:04;;;;;;;11.15;3.63;;;;;;;;;;5048279;28;20154;-67
2022/10/07 09:06:36;;;;;;;10.95;3.72;;;;;;;;;;5059414;28;20434;-67
2022/10/07 09:09:10;;;;;;;14.75;3.92;;;;;;;;;;5068920;28;20041;-67
2022/10/07 09:11:40;;;;;;;14.65;4.43;;;;;;;;;;5049770;28;20119;-67
2022/10/07 09:14:19;;;;;;;10.50;4.88;;;;;;;;;;5050450;28;20067;-67
2022/10/07 09:16:46;;;;;;;12.20;5.03;;;;;;;;;;5068372;28;20036;-67
2022/10/07 09:19:20;;;;;;;18.38;6.22;;;;;;;;;;5058481;28;20032;-67
2022/10/07 09:21:48;;;;;;;14.10;5.13;;;;;;;;;;5048357;28;20032;-67
2022/10/07 09:24:26;;;;;;;20.25;5.13;;;;;;;;;;5030530;28;20029;-67
2022/10/07 09:26:55;;;;;;;18.40;5.90;;;;;;;;;;5048310;28;20414;-67
2022/10/07 09:29:25;;;;;;;15.60;5.38;;;;;;;;;;5048355;28;20041;-67
2022/10/07 09:31:52;;;;;;;9.48;3.58;;;;;;;;;;5047263;28;20037;-67
2022/10/07 09:34:21;;;;;;;9.80;2.83;;;;;;;;;;5048258;28;20133;-67
2022/10/07 09:37:09;;;;;;;8.88;2.33;;;;;;;;;;5029791;28;20043;-67
2022/10/07 09:39:35;;;;;;;11.77;2.58;;;;;;;;;;5047274;28;20020;-67
2022/10/07 09:42:03;;;;;;;8.70;2.97;;;;;;;;;;5047784;28;20024;-67
2022/10/07 09:44:29;;;;;;;13.90;2.40;;;;;;;;;;5028595;28;20128;-67
2022/10/07 09:46:58;;;;;;;10.73;2.70;;;;;;;;;;5029363;28;20186;-67
2022/10/07 09:49:26;;;;;;;6.15;2.92;;;;;;;;;;5050904;28;20040;-67
2022/10/07 09:52:14;;;;;;;7.82;2.15;;;;;;;;;;5062630;28;20109;-67
2022/10/07 09:54:40;;;;;;;7.53;1.92;;;;;;;;;;5064628;28;20025;-67
2022/10/07 09:57:23;;;;;;;10.40;2.03;;;;;;;;;;5048936;28;20024;-67
2022/10/07 09:59:48;;;;;;;5.93;2.17;;;;;;;;;;5067204;28;20043;-67
2022/10/07 10:02:18;;;;;;;7.30;2.35;;;;;;;;;;5052957;28;20032;-67
2022/10/07 10:04:49;;;;;;;5.55;1.92;;;;;;;;;;5039841;28;20058;-67
2022/10/07 10:07:25;;;;;;;9.20;1.75;;;;;;;;;;5025852;28;20075;-67
2022/10/07 10:09:53;;;;;;;5.50;1.52;;;;;;;;;;5026796;28;20108;-67
2022/10/07 10:12:20;;;;;;;4.28;1.35;;;;;;;;;;5035601;28;20053;-67
2022/10/07 10:14:54;;;;;;;6.32;1.50;;;;;;;;;;5045985;28;20033;-67
2022/10/07 10:17:33;;;;;;;9.75;1.80;;;;;;;;;;5045377;28;20037;-67
2022/10/07 10:20:31;;;;;;;9.90;1.80;;;;;;;;;;5045852;28;20040;-67
2022/10/07 10:23:00;;;;;;;7.85;1.80;;;;;;;;;;5045749;28;20127;-67
2022/10/07 10:28:34;;;;;;;7.22;1.58;;;;;;;;;;5045904;28;20139;-67
2022/10/07 10:31:17;;;;;;;10.45;1.58;;;;;;;;;;5046185;28;20043;-67
2022/10/07 10:33:52;;;;;;;9.98;2.55;;;;;;;;;;5026567;28;20095;-67
2022/10/07 10:36:22;;;;;;;11.45;2.08;;;;;;;;;;5024681;28;20024;-67
2022/10/07 10:39:02;;;;;;;6.20;1.80;;;;;;;;;;5027526;28;20099;-67
2022/10/07 10:41:31;;;;;;;4.88;1.83;;;;;;;;;;5028071;28;20077;-66
2022/10/07 10:44:02;;;;;;;6.43;1.40;;;;;;;;;;5045582;28;20033;-67
2022/10/07 10:46:51;;;;;;;6.65;1.30;;;;;;;;;;5027803;28;20094;-67
2022/10/07 10:49:44;;;;;;;5.13;1.15;;;;;;;;;;5045654;28;20052;-67
2022/10/07 10:52:25;;;;;;;5.53;1.20;;;;;;;;;;5028034;28;20040;-67
2022/10/07 10:55:20;;;;;;;7.93;1.50;;;;;;;;;;5045020;28;20021;-67
2022/10/07 10:57:54;;;;;;;10.00;1.60;;;;;;;;;;5029773;28;20039;-67
2022/10/07 11:00:21;;;;;;;7.72;1.35;;;;;;;;;;5031846;28;20061;-66
2022/10/07 11:02:59;;;;;;;5.45;1.25;;;;;;;;;;5029134;28;20036;-67
2022/10/07 11:05:35;;;;;;;5.55;1.63;;;;;;;;;;5028125;28;20120;-67
2022/10/07 11:08:15;;;;;;;4.38;1.15;;;;;;;;;;5029182;28;20473;-67
2022/10/07 11:11:02;;;;;;;5.15;1.17;;;;;;;;;;5028839;28;20584;-67
2022/10/07 11:13:39;;;;;;;4.47;1.50;;;;;;;;;;5017579;28;1118783;-67
2022/10/07 11:16:29;;;;;;;6.13;1.50;;;;;;;;;;5069936;28;20047;-67
2022/10/07 11:19:15;;;;;;;6.72;1.35;;;;;;;;;;5069821;28;20025;-67
2022/10/07 11:21:47;;;;;;;7.60;1.60;;;;;;;;;;5049418;28;20028;-67
2022/10/07 11:24:26;;;;;;;7.13;1.42;;;;;;;;;;5049392;28;20013;-67
2022/10/07 11:26:58;;;;;;;6.10;1.52;;;;;;;;;;5049039;28;20036;-67
2022/10/07 11:29:38;;;;;;;8.45;1.40;;;;;;;;;;5043424;28;20029;-67
2022/10/07 11:32:11;;;;;;;3.53;1.40;;;;;;;;;;5053761;28;20045;-67
2022/10/07 11:34:39;;;;;;;8.20;1.48;;;;;;;;;;5048617;28;20040;-67
2022/10/07 11:37:26;;;;;;;5.53;1.15;;;;;;;;;;5028371;28;20060;-67
2022/10/07 11:39:52;;;;;;;7.10;1.50;;;;;;;;;;5031379;28;20060;-67
2022/10/07 11:42:26;;;;;;;4.70;1.30;;;;;;;;;;5050559;28;20035;-67
2022/10/07 11:45:05;;;;;;;12.70;1.30;;;;;;;;;;5049667;28;20045;-67
2022/10/07 11:48:06;;;;;;;6.97;1.85;;;;;;;;;;5048740;28;20071;-67
2022/10/07 11:50:37;;;;;;;4.20;1.08;;;;;;;;;;5043371;28;20809;-67
2022/10/07 11:53:09;;;;;;;6.80;1.20;;;;;;;;;;5031988;28;20044;-67
2022/10/07 11:55:42;;;;;;;4.30;1.75;;;;;;;;;;5048694;28;20519;-67
2022/10/07 11:58:22;;;;;;;6.82;1.50;;;;;;;;;;5048553;28;20040;-67
2022/10/07 12:00:48;;;;;;;8.60;1.15;;;;;;;;;;5030537;28;20033;-67
2022/10/07 12:03:16;;;;;;;7.15;1.55;;;;;;;;;;5048964;28;20033;-67
2022/10/07 12:05:47;;;;;;;8.85;1.85;;;;;;;;;;5031028;28;20041;-67
2022/10/07 12:08:31;;;;;;;6.15;1.10;;;;;;;;;;5048647;28;20041;-67
2022/10/07 12:11:12;;;;;;;12.43;1.50;;;;;;;;;;5046254;28;20048;-67
2022/10/07 12:13:44;;;;;;;8.98;2.25;;;;;;;;;;5030480;28;20140;-67
2022/10/07 12:16:28;;;;;;;7.53;1.25;;;;;;;;;;5048111;28;20048;-67
2022/10/07 12:19:06;;;;;;;4.25;1.30;;;;;;;;;;5042581;28;20503;-67
2022/10/07 12:22:03;;;;;;;7.85;1.52;;;;;;;;;;5040121;28;20017;-67
2022/10/07 12:24:31;;;;;;;2.92;0.93;;;;;;;;;;5027469;28;20083;-67
2022/10/07 12:27:04;;;;;;;9.55;1.42;;;;;;;;;;5029249;28;20033;-67
2022/10/07 12:29:34;;;;;;;3.78;1.30;;;;;;;;;;5028427;28;20033;-67
2022/10/07 12:31:59;;;;;;;4.30;1.65;;;;;;;;;;5031910;28;20037;-67
2022/10/07 12:34:38;;;;;;;12.20;1.60;;;;;;;;;;5027870;28;20185;-67
2022/10/07 12:37:43;;;;;;;10.15;2.38;;;;;;;;;;5048766;28;20029;-67
2022/10/07 12:40:19;;;;;;;6.40;1.67;;;;;;;;;;5014476;28;20038;-67
2022/10/07 12:42:53;;;;;;;9.30;1.52;;;;;;;;;;5009471;28;20404;-66
2022/10/07 12:45:20;;;;;;;3.25;1.30;;;;;;;;;;5028572;28;20030;-67
2022/10/07 12:47:46;;;;;;;5.65;1.35;;;;;;;;;;5040475;28;20044;-67
2022/10/07 12:50:16;;;;;;;10.80;1.58;;;;;;;;;;5039693;28;20029;-67
2022/10/07 12:52:45;;;;;;;9.02;1.60;;;;;;;;;;5034372;28;20069;-67
2022/10/07 12:55:21;;;;;;;5.32;1.23;;;;;;;;;;5035787;28;20542;-67
2022/10/07 12:57:50;;;;;;;3.95;1.20;;;;;;;;;;5028039;28;20166;-67
2022/10/07 13:00:16;;;;;;;12.23;1.45;;;;;;;;;;5046488;28;20080;-67
2022/10/07 13:02:54;;;;;;;5.38;1.55;;;;;;;;;;5046540;28;20461;-66
2022/10/07 13:05:57;;;;;;;4.72;1.88;;;;;;;;;;5047277;28;20044;-67
2022/10/07 13:08:31;;;;;;;5.82;1.00;;;;;;;;;;4999935;28;20044;-67
2022/10/07 13:10:59;;;;;;;3.47;1.25;;;;;;;;;;5052544;28;20048;-67
2022/10/07 13:13:41;;;;;;;7.75;1.27;;;;;;;;;;5026705;28;20099;-67
2022/10/07 13:16:28;;;;;;;6.78;1.38;;;;;;;;;;5028030;28;20036;-67
2022/10/07 13:19:07;;;;;;;6.82;1.10;;;;;;;;;;5027602;28;20045;-67
2022/10/07 13:21:43;;;;;;;6.47;1.40;;;;;;;;;;5010125;28;20048;-67
2022/10/07 13:24:14;;;;;;;4.88;1.58;;;;;;;;;;5028390;28;20028;-67
2022/10/07 13:26:43;;;;;;;8.48;1.65;;;;;;;;;;5028112;28;20045;-67
2022/10/07 13:29:20;;;;;;;5.88;1.40;;;;;;;;;;5026735;28;20037;-67
2022/10/07 13:32:02;;;;;;;9.35;1.40;;;;;;;;;;5048049;28;20510;-67
2022/10/07 13:34:27;;;;;;;7.13;1.52;;;;;;;;;;5047141;28;20152;-67
2022/10/07 13:36:53;;;;;;;8.02;1.50;;;;;;;;;;5047970;28;20112;-67
2022/10/07 13:39:21;;;;;;;5.85;1.50;;;;;;;;;;5046707;28;20021;-67
2022/10/07 13:41:49;;;;;;;5.75;1.25;;;;;;;;;;5047610;28;20108;-67
2022/10/07 13:44:18;;;;;;;10.38;1.50;;;;;;;;;;5047989;28;20167;-67
2022/10/07 13:47:01;;;;;;;4.78;1.38;;;;;;;;;;5047697;28;20052;-67
2022/10/07 13:49:38;;;;;;;7.20;1.30;;;;;;;;;;5029857;28;20029;-67
2022/10/07 13:52:06;;;;;;;6.88;1.85;;;;;;;;;;5038811;28;20030;-67
2022/10/07 13:54:33;;;;;;;6.78;1.23;;;;;;;;;;5046667;28;20021;-67
2022/10/07 13:56:59;;;;;;;6.65;1.42;;;;;;;;;;5047662;28;20025;-67
2022/10/07 13:59:25;;;;;;;8.43;1.40;;;;;;;;;;5047281;28;20037;-67
2022/10/07 14:01:57;;;;;;;4.93;1.30;;;;;;;;;;5047048;28;20101;-67
2022/10/07 14:04:34;;;;;;;7.03;1.52;;;;;;;;;;5047412;28;20513;-67
2022/10/07 14:07:12;;;;;;;4.97;1.30;;;;;;;;;;5046058;28;20063;-67
2022/10/07 14:09:47;;;;;;;6.22;1.40;;;;;;;;;;5045843;28;20078;-67
2022/10/07 14:12:24;;;;;;;3.75;1.95;;;;;;;;;;5047007;28;20041;-67
2022/10/07 14:14:54;;;;;;;7.15;1.55;;;;;;;;;;5045869;28;20040;-67
2022/10/07 14:17:38;;;;;;;4.38;1.10;;;;;;;;;;5049162;28;20525;-67
2022/10/07 14:20:14;;;;;;;6.57;1.52;;;;;;;;;;5009243;28;20030;-67
2022/10/07 14:22:41;;;;;;;8.93;1.30;;;;;;;;;;5026958;28;20040;-67
2022/10/07 14:25:17;;;;;;;4.90;1.42;;;;;;;;;;5026630;28;20034;-67
2022/10/07 14:27:45;;;;;;;5.32;1.60;;;;;;;;;;5027113;28;20029;-67
2022/10/07 14:36:19;;;;;;;6.78;1.77;;;;;;;;;;5067080;28;20047;-67
2022/10/07 14:38:46;;;;;;;11.10;1.60;;;;;;;;;;5045379;28;20035;-67
2022/10/07 14:41:14;;;;;;;8.35;1.42;;;;;;;;;;5046784;28;20036;-67
2022/10/07 14:43:43;;;;;;;4.13;1.33;;;;;;;;;;5047270;28;20557;-66
2022/10/07 14:46:21;;;;;;;6.75;1.30;;;;;;;;;;5046813;28;20039;-67
2022/10/07 14:48:47;;;;;;;9.60;1.50;;;;;;;;;;5046914;28;20029;-67
2022/10/07 14:51:16;;;;;;;5.03;1.13;;;;;;;;;;5029811;28;20417;-67
2022/10/07 14:53:42;;;;;;;7.10;1.45;;;;;;;;;;5046986;28;20122;-66
2022/10/07 14:56:12;;;;;;;8.63;1.50;;;;;;;;;;5046901;28;20067;-67
2022/10/07 14:58:38;;;;;;;7.35;1.35;;;;;;;;;;5046602;28;20112;-67
2022/10/07 15:01:05;;;;;;;7.32;1.27;;;;;;;;;;5046735;28;20163;-67
2022/10/07 15:03:31;;;;;;;9.30;1.23;;;;;;;;;;5047241;28;20028;-67
2022/10/07 15:05:56;;;;;;;4.82;1.30;;;;;;;;;;5050576;28;20040;-67
2022/10/07 15:08:22;;;;;;;3.90;1.25;;;;;;;;;;5066284;28;20055;-67
2022/10/07 15:10:47;;;;;;;5.05;1.42;;;;;;;;;;5048817;28;20025;-67
2022/10/07 15:13:13;;;;;;;7.35;1.60;;;;;;;;;;5065263;28;20413;-66
2022/10/07 15:15:44;;;;;;;9.10;1.80;;;;;;;;;;5066389;28;20046;-67